createdAt,value
2023-02-12T00:01:51.158Z,25.80
2023-02-12T00:07:53.261Z,24.20
2023-02-12T00:13:21.072Z,28.40
2023-02-12T00:19:29.581Z,24.50
2023-02-12T00:25:13.505Z,25.00
2023-02-12T00:32:01.412Z,24.70
2023-02-12T00:38:33.331Z,27.70
2023-02-12T00:45:29.173Z,25.50
2023-02-12T00:51:34.805Z,26.70
2023-02-12T00:58:02.101Z,31.20
2023-02-12T01:04:18.756Z,28.70
2023-02-12T01:10:34.838Z,30.70
2023-02-12T01:16:25.623Z,31.20
2023-02-12T01:23:02.034Z,34.70
2023-02-12T01:29:23.900Z,34.10
2023-02-12T01:35:48.603Z,32.50
2023-02-12T01:42:35.828Z,36.60
2023-02-12T01:49:38.657Z,36.70
2023-02-12T01:56:26.604Z,37.90
2023-02-12T02:03:14.637Z,42.50
2023-02-12T02:10:09.839Z,36.50
2023-02-12T02:16:29.352Z,34.80
2023-02-12T02:23:26.389Z,38.20
2023-02-12T02:29:54.794Z,37.30
2023-02-12T02:36:41.445Z,36.30
2023-02-12T02:43:34.494Z,33.30
2023-02-12T02:50:33.535Z,33.70
2023-02-12T02:57:32.045Z,32.90
2023-02-12T03:04:40.828Z,34.10
2023-02-12T03:11:46.457Z,35.30
2023-02-12T03:18:49.278Z,35.00
2023-02-12T03:25:51.882Z,34.20
2023-02-12T03:32:22.725Z,41.60
2023-02-12T03:39:17.148Z,38.80
2023-02-12T03:45:59.774Z,38.80
2023-02-12T03:53:02.678Z,32.40
2023-02-12T04:00:05.586Z,41.30
2023-02-12T04:07:11.626Z,45.20
2023-02-12T04:14:36.373Z,38.30
2023-02-12T04:21:55.645Z,38.20
2023-02-12T04:29:05.985Z,38.00
2023-02-12T04:36:14.782Z,42.60
2023-02-12T04:43:13.825Z,36.40
2023-02-12T04:50:16.570Z,46.90
2023-02-12T04:57:13.761Z,41.30
2023-02-12T05:04:05.030Z,40.90
2023-02-12T05:10:47.668Z,34.40
2023-02-12T05:17:50.509Z,38.40
2023-02-12T05:24:53.296Z,36.90
2023-02-12T05:31:56.101Z,38.60
2023-02-12T05:38:36.054Z,40.10
2023-02-12T05:45:38.170Z,44.10
2023-02-12T05:52:40.943Z,39.00
2023-02-12T05:59:26.306Z,36.60
2023-02-12T06:06:18.897Z,43.40
2023-02-12T06:12:41.441Z,42.40
2023-02-12T06:19:31.164Z,35.50
2023-02-12T06:26:33.537Z,42.00
2023-02-12T06:33:15.977Z,37.40
2023-02-12T06:40:18.467Z,39.60
2023-02-12T06:47:09.769Z,36.30
2023-02-12T06:54:11.837Z,38.40
2023-02-12T07:00:39.682Z,40.10
2023-02-12T07:06:43.430Z,32.80
2023-02-12T07:13:06.562Z,37.80
2023-02-12T07:19:35.216Z,29.00
2023-02-12T07:24:39.981Z,31.50
2023-02-12T07:30:00.503Z,32.00
2023-02-12T07:35:21.441Z,32.50
2023-02-12T07:40:53.105Z,34.40
2023-02-12T07:47:03.840Z,31.60
2023-02-12T07:52:38.366Z,29.70
2023-02-12T07:58:33.562Z,25.50
2023-02-12T08:04:42.889Z,22.90
2023-02-12T08:11:46.080Z,25.90
2023-02-12T08:18:31.795Z,23.90
2023-02-12T08:25:24.855Z,27.50
2023-02-12T08:30:31.160Z,33.00
2023-02-12T08:36:34.254Z,26.10
2023-02-12T08:41:50.489Z,19.20
2023-02-12T08:47:12.805Z,19.70
2023-02-12T08:53:12.367Z,20.60
2023-02-12T08:58:48.542Z,20.00
2023-02-12T09:04:06.959Z,19.60
2023-02-12T09:09:51.277Z,22.50
2023-02-12T09:15:11.106Z,16.60
2023-02-12T09:20:18.440Z,15.30
2023-02-12T09:25:30.899Z,15.40
2023-02-12T09:30:55.614Z,18.30
2023-02-12T09:36:18.458Z,15.20
2023-02-12T09:47:02.453Z,17.00
2023-02-12T09:52:56.369Z,17.20
2023-02-12T09:58:23.015Z,16.20
2023-02-12T10:04:15.807Z,15.90
2023-02-12T10:10:36.026Z,18.40
2023-02-12T10:16:30.775Z,17.80
2023-02-12T10:22:16.802Z,19.90
2023-02-12T10:28:09.083Z,15.10
2023-02-12T10:33:45.203Z,19.80
2023-02-12T10:38:58.349Z,11.90
2023-02-12T10:44:20.425Z,13.10
2023-02-12T10:50:02.584Z,13.00
2023-02-12T10:55:24.245Z,15.60
2023-02-12T11:00:33.006Z,13.90
2023-02-12T11:06:17.365Z,16.00
2023-02-12T11:11:37.425Z,15.80
2023-02-12T11:17:04.735Z,14.80
2023-02-12T11:22:18.475Z,17.40
2023-02-12T11:27:41.632Z,14.40
2023-02-12T11:32:57.015Z,18.70
2023-02-12T11:38:49.721Z,16.40
2023-02-12T11:44:32.023Z,17.90
2023-02-12T11:49:48.812Z,18.50
2023-02-12T11:55:01.069Z,15.70
2023-02-12T12:00:18.469Z,19.00
2023-02-12T12:05:59.997Z,18.00
2023-02-12T12:11:26.257Z,17.30
2023-02-12T12:17:13.834Z,18.50
2023-02-12T12:23:05.604Z,19.70
2023-02-12T12:28:38.967Z,20.20
2023-02-12T12:34:29.997Z,20.30
2023-02-12T12:40:00.046Z,23.60
2023-02-12T12:45:58.627Z,21.50
2023-02-12T12:51:08.959Z,24.20
2023-02-12T12:57:04.167Z,18.60
2023-02-12T13:02:30.632Z,21.80
2023-02-12T13:08:04.596Z,21.20
2023-02-12T13:13:53.280Z,20.10
2023-02-12T13:19:38.478Z,18.30
2023-02-12T13:25:19.035Z,23.20
2023-02-12T13:30:43.467Z,18.50
2023-02-12T13:36:12.745Z,16.60
2023-02-12T13:41:20.569Z,17.40
2023-02-12T13:46:44.210Z,18.70
2023-02-12T13:52:16.207Z,19.60
2023-02-12T13:58:25.932Z,17.50
2023-02-12T14:03:43.178Z,15.40
2023-02-12T14:08:56.456Z,17.10
2023-02-12T14:14:12.205Z,20.20
2023-02-12T14:19:41.928Z,23.20
2023-02-12T14:25:16.591Z,20.40
2023-02-12T14:30:26.626Z,22.70
2023-02-12T14:35:42.471Z,25.40
2023-02-12T14:40:46.614Z,22.90
2023-02-12T14:45:57.712Z,23.30
2023-02-12T14:51:02.462Z,21.50
2023-02-12T14:56:08.953Z,22.60
2023-02-12T15:01:11.668Z,23.70
2023-02-12T15:06:35.482Z,29.00
2023-02-12T15:11:44.690Z,25.40
2023-02-12T15:17:05.921Z,25.60
2023-02-12T15:22:31.382Z,27.20
2023-02-12T15:27:35.446Z,33.30
2023-02-12T15:32:45.442Z,31.10
2023-02-12T15:37:47.416Z,32.10
2023-02-12T15:43:57.126Z,35.30
2023-02-12T15:50:18.371Z,37.70
2023-02-12T15:55:54.089Z,31.40
2023-02-12T16:01:02.172Z,34.70
2023-02-12T16:11:19.709Z,32.80
2023-02-12T16:17:05.515Z,38.00
2023-02-12T16:22:37.790Z,40.00
2023-02-12T16:28:38.983Z,52.00
2023-02-12T16:35:12.433Z,87.90
2023-02-12T16:41:29.170Z,79.60
2023-02-12T16:48:00.248Z,98.50
2023-02-12T16:54:30.708Z,81.90
2023-02-12T17:00:55.211Z,92.90
2023-02-12T17:07:16.461Z,72.90
2023-02-12T17:12:50.673Z,89.40
2023-02-12T17:19:00.458Z,106.00
2023-02-12T17:25:26.815Z,138.40
2023-02-12T17:30:31.851Z,145.80
2023-02-12T17:36:36.417Z,141.10
2023-02-12T17:42:56.471Z,103.70
2023-02-12T17:49:23.396Z,79.70
2023-02-12T17:55:44.945Z,91.50
2023-02-12T18:02:06.116Z,84.70
2023-02-12T18:07:33.324Z,105.30
2023-02-12T18:12:42.583Z,95.80
2023-02-12T18:18:00.295Z,108.10
2023-02-12T18:23:11.637Z,118.10
2023-02-12T18:28:16.374Z,137.80
2023-02-12T18:33:59.657Z,136.50
2023-02-12T18:39:24.470Z,198.50
2023-02-12T18:44:32.445Z,206.90
2023-02-12T18:49:33.986Z,226.30
2023-02-12T18:54:35.380Z,231.10
2023-02-12T18:59:36.851Z,223.10
2023-02-12T19:04:38.194Z,228.80
2023-02-12T19:09:39.823Z,204.30
2023-02-12T19:14:41.843Z,214.80
2023-02-12T19:19:43.517Z,227.90
2023-02-12T19:24:47.156Z,234.00
2023-02-12T19:29:48.641Z,235.30
2023-02-12T19:34:49.808Z,221.40
2023-02-12T19:39:51.084Z,217.60
2023-02-12T19:44:52.354Z,230.40
2023-02-12T19:49:54.479Z,227.40
2023-02-12T19:54:55.937Z,216.10
2023-02-12T19:59:57.709Z,218.40
2023-02-12T20:04:58.979Z,226.60
2023-02-12T20:10:00.585Z,244.10
2023-02-12T20:15:03.906Z,245.60
2023-02-12T20:20:06.297Z,232.10
2023-02-12T20:25:07.780Z,238.60
2023-02-12T20:30:09.272Z,230.60
2023-02-12T20:35:12.422Z,236.30
2023-02-12T20:40:13.748Z,313.10
2023-02-12T20:45:16.576Z,398.40
2023-02-12T20:50:18.045Z,290.20
2023-02-12T20:55:20.440Z,277.40
2023-02-12T21:00:21.738Z,266.00
2023-02-12T21:05:23.021Z,253.00
2023-02-12T21:10:24.296Z,253.80
2023-02-12T21:15:25.605Z,242.20
2023-02-12T21:20:26.936Z,223.20
2023-02-12T21:25:28.378Z,251.60
2023-02-12T21:30:29.802Z,244.60
2023-02-12T21:36:30.911Z,250.20
2023-02-12T21:42:51.842Z,232.50
2023-02-12T21:49:12.819Z,274.20
2023-02-12T21:55:33.794Z,258.60
2023-02-12T22:01:54.757Z,262.70
2023-02-12T22:07:16.124Z,251.80
2023-02-12T22:12:19.117Z,234.80
2023-02-12T22:17:20.310Z,202.20
2023-02-12T22:23:21.246Z,210.80
2023-02-12T22:28:50.940Z,233.20
2023-02-12T22:33:55.632Z,216.00
2023-02-12T22:38:59.697Z,238.00
2023-02-12T22:44:04.472Z,238.50
2023-02-12T22:49:09.877Z,237.30
2023-02-12T22:54:14.259Z,239.50
2023-02-12T22:59:16.023Z,236.20
2023-02-12T23:04:18.192Z,251.40
2023-02-12T23:10:19.390Z,235.70
2023-02-12T23:16:40.368Z,225.60
2023-02-12T23:23:01.463Z,207.10
2023-02-12T23:29:22.363Z,209.90
2023-02-12T23:35:43.553Z,229.40
2023-02-12T23:42:04.511Z,197.80
2023-02-12T23:48:25.627Z,207.70
2023-02-12T23:54:46.613Z,200.10
